sensor_id;sensor_type;location;lat;lon;timestamp;pressure;altitude;pressure_sealevel;temperature;humidity
54872;BME280;43914;57.680;11.982;2023-07-13T00:00:37;99840.89;;;14.27;100.00
54872;BME280;43914;57.680;11.982;2023-07-13T00:03:04;99838.30;;;14.25;100.00
54872;BME280;43914;57.680;11.982;2023-07-13T00:05:30;99845.50;;;14.25;100.00
54872;BME280;43914;57.680;11.982;2023-07-13T00:07:56;99845.45;;;14.25;100.00
54872;BME280;43914;57.680;11.982;2023-07-13T00:10:22;99843.70;;;14.25;100.00
54872;BME280;43914;57.680;11.982;2023-07-13T00:12:48;99840.67;;;14.25;100.00
54872;BME280;43914;57.680;11.982;2023-07-13T00:15:20;99837.09;;;14.26;100.00
54872;BME280;43914;57.680;11.982;2023-07-13T00:17:54;99834.43;;;14.26;100.00
54872;BME280;43914;57.680;11.982;2023-07-13T00:20:22;99838.35;;;14.24;100.00
54872;BME280;43914;57.680;11.982;2023-07-13T00:22:50;99841.17;;;14.25;100.00
54872;BME280;43914;57.680;11.982;2023-07-13T00:25:19;99843.05;;;14.24;100.00
54872;BME280;43914;57.680;11.982;2023-07-13T00:27:47;99840.20;;;14.25;100.00
54872;BME280;43914;57.680;11.982;2023-07-13T00:30:14;99841.23;;;14.25;100.00
54872;BME280;43914;57.680;11.982;2023-07-13T00:32:39;99843.27;;;14.26;100.00
54872;BME280;43914;57.680;11.982;2023-07-13T00:35:05;99841.27;;;14.27;100.00
54872;BME280;43914;57.680;11.982;2023-07-13T00:37:31;99843.15;;;14.26;100.00
54872;BME280;43914;57.680;11.982;2023-07-13T00:39:57;99841.73;;;14.26;100.00
54872;BME280;43914;57.680;11.982;2023-07-13T00:42:22;99841.78;;;14.25;100.00
54872;BME280;43914;57.680;11.982;2023-07-13T00:45:05;99847.80;;;14.24;100.00
54872;BME280;43914;57.680;11.982;2023-07-13T00:47:32;99849.39;;;14.23;100.00
54872;BME280;43914;57.680;11.982;2023-07-13T00:49:57;99849.88;;;14.21;100.00
54872;BME280;43914;57.680;11.982;2023-07-13T00:52:23;99849.19;;;14.20;100.00
54872;BME280;43914;57.680;11.982;2023-07-13T00:54:49;99845.95;;;14.18;100.00
54872;BME280;43914;57.680;11.982;2023-07-13T00:57:17;99847.47;;;14.18;100.00
54872;BME280;43914;57.680;11.982;2023-07-13T00:59:54;99844.29;;;14.16;100.00
54872;BME280;43914;57.680;11.982;2023-07-13T01:02:21;99845.08;;;14.16;100.00
54872;BME280;43914;57.680;11.982;2023-07-13T01:04:47;99842.77;;;14.14;100.00
54872;BME280;43914;57.680;11.982;2023-07-13T01:07:13;99842.96;;;14.13;100.00
54872;BME280;43914;57.680;11.982;2023-07-13T01:09:39;99844.67;;;14.12;100.00
54872;BME280;43914;57.680;11.982;2023-07-13T01:12:06;99846.23;;;14.11;100.00
54872;BME280;43914;57.680;11.982;2023-07-13T01:14:32;99840.17;;;14.11;100.00
54872;BME280;43914;57.680;11.982;2023-07-13T01:16:58;99843.90;;;14.11;100.00
54872;BME280;43914;57.680;11.982;2023-07-13T01:19:33;99847.42;;;14.12;100.00
54872;BME280;43914;57.680;11.982;2023-07-13T01:22:13;99846.89;;;14.12;100.00
54872;BME280;43914;57.680;11.982;2023-07-13T01:24:42;99845.40;;;14.13;100.00
54872;BME280;43914;57.680;11.982;2023-07-13T01:27:12;99842.46;;;14.15;100.00
54872;BME280;43914;57.680;11.982;2023-07-13T01:29:39;99842.55;;;14.16;100.00
54872;BME280;43914;57.680;11.982;2023-07-13T01:32:13;99839.89;;;14.18;100.00
54872;BME280;43914;57.680;11.982;2023-07-13T01:34:39;99848.57;;;14.19;100.00
54872;BME280;43914;57.680;11.982;2023-07-13T01:37:08;99845.70;;;14.20;100.00
54872;BME280;43914;57.680;11.982;2023-07-13T01:39:34;99844.55;;;14.22;100.00
54872;BME280;43914;57.680;11.982;2023-07-13T01:42:00;99845.61;;;14.23;100.00
54872;BME280;43914;57.680;11.982;2023-07-13T01:44:26;99845.64;;;14.24;100.00
54872;BME280;43914;57.680;11.982;2023-07-13T01:46:52;99846.48;;;14.25;100.00
54872;BME280;43914;57.680;11.982;2023-07-13T01:49:17;99848.55;;;14.28;100.00
54872;BME280;43914;57.680;11.982;2023-07-13T01:51:43;99851.36;;;14.30;100.00
54872;BME280;43914;57.680;11.982;2023-07-13T01:54:08;99846.94;;;14.31;100.00
54872;BME280;43914;57.680;11.982;2023-07-13T01:56:34;99848.76;;;14.32;100.00
54872;BME280;43914;57.680;11.982;2023-07-13T01:58:59;99847.60;;;14.34;100.00
54872;BME280;43914;57.680;11.982;2023-07-13T02:01:25;99846.80;;;14.34;100.00
54872;BME280;43914;57.680;11.982;2023-07-13T02:03:50;99845.21;;;14.35;100.00
54872;BME280;43914;57.680;11.982;2023-07-13T02:06:16;99845.13;;;14.36;100.00
54872;BME280;43914;57.680;11.982;2023-07-13T02:08:42;99847.78;;;14.36;100.00
54872;BME280;43914;57.680;11.982;2023-07-13T02:11:08;99845.11;;;14.36;100.00
54872;BME280;43914;57.680;11.982;2023-07-13T02:13:34;99846.27;;;14.34;100.00
54872;BME280;43914;57.680;11.982;2023-07-13T02:16:00;99851.08;;;14.32;100.00
54872;BME280;43914;57.680;11.982;2023-07-13T02:18:26;99852.17;;;14.31;100.00
54872;BME280;43914;57.680;11.982;2023-07-13T02:20:52;99852.08;;;14.29;100.00
54872;BME280;43914;57.680;11.982;2023-07-13T02:23:17;99855.23;;;14.27;100.00
54872;BME280;43914;57.680;11.982;2023-07-13T02:25:43;99854.56;;;14.24;100.00
54872;BME280;43914;57.680;11.982;2023-07-13T02:28:08;99861.38;;;14.22;100.00
54872;BME280;43914;57.680;11.982;2023-07-13T02:30:35;99855.80;;;14.20;100.00
54872;BME280;43914;57.680;11.982;2023-07-13T02:33:00;99859.71;;;14.17;100.00
54872;BME280;43914;57.680;11.982;2023-07-13T02:35:26;99867.20;;;14.13;100.00
54872;BME280;43914;57.680;11.982;2023-07-13T02:37:52;99868.74;;;14.10;100.00
54872;BME280;43914;57.680;11.982;2023-07-13T02:40:17;99870.95;;;14.10;100.00
54872;BME280;43914;57.680;11.982;2023-07-13T02:42:43;99871.80;;;14.09;100.00
54872;BME280;43914;57.680;11.982;2023-07-13T02:45:09;99866.52;;;14.08;100.00
54872;BME280;43914;57.680;11.982;2023-07-13T02:47:36;99865.02;;;14.09;100.00
54872;BME280;43914;57.680;11.982;2023-07-13T02:50:03;99869.69;;;14.10;100.00
54872;BME280;43914;57.680;11.982;2023-07-13T02:52:28;99868.95;;;14.10;100.00
54872;BME280;43914;57.680;11.982;2023-07-13T02:54:54;99865.48;;;14.12;100.00
54872;BME280;43914;57.680;11.982;2023-07-13T02:57:19;99862.70;;;14.13;100.00
54872;BME280;43914;57.680;11.982;2023-07-13T02:59:45;99859.83;;;14.16;100.00
54872;BME280;43914;57.680;11.982;2023-07-13T03:02:11;99858.52;;;14.17;100.00
54872;BME280;43914;57.680;11.982;2023-07-13T03:04:37;99855.55;;;14.19;100.00
54872;BME280;43914;57.680;11.982;2023-07-13T03:07:03;99853.45;;;14.21;100.00
54872;BME280;43914;57.680;11.982;2023-07-13T03:09:31;99851.46;;;14.24;100.00
54872;BME280;43914;57.680;11.982;2023-07-13T03:11:57;99855.11;;;14.27;100.00
54872;BME280;43914;57.680;11.982;2023-07-13T03:14:23;99857.75;;;14.28;100.00
54872;BME280;43914;57.680;11.982;2023-07-13T03:16:48;99855.16;;;14.32;100.00
54872;BME280;43914;57.680;11.982;2023-07-13T03:19:14;99856.47;;;14.33;100.00
54872;BME280;43914;57.680;11.982;2023-07-13T03:21:40;99856.86;;;14.36;100.00
54872;BME280;43914;57.680;11.982;2023-07-13T03:24:06;99855.23;;;14.38;100.00
54872;BME280;43914;57.680;11.982;2023-07-13T03:26:32;99860.52;;;14.40;100.00
54872;BME280;43914;57.680;11.982;2023-07-13T03:28:57;99859.87;;;14.42;100.00
54872;BME280;43914;57.680;11.982;2023-07-13T03:31:26;99860.86;;;14.43;100.00
54872;BME280;43914;57.680;11.982;2023-07-13T03:33:54;99859.81;;;14.41;100.00
54872;BME280;43914;57.680;11.982;2023-07-13T03:36:24;99866.95;;;14.42;100.00
54872;BME280;43914;57.680;11.982;2023-07-13T03:38:53;99862.84;;;14.44;100.00
54872;BME280;43914;57.680;11.982;2023-07-13T03:41:19;99867.02;;;14.48;100.00
54872;BME280;43914;57.680;11.982;2023-07-13T03:43:46;99865.67;;;14.52;100.00
54872;BME280;43914;57.680;11.982;2023-07-13T03:46:14;99866.38;;;14.55;100.00
54872;BME280;43914;57.680;11.982;2023-07-13T03:48:41;99867.58;;;14.63;100.00
54872;BME280;43914;57.680;11.982;2023-07-13T03:51:09;99871.48;;;14.69;100.00
54872;BME280;43914;57.680;11.982;2023-07-13T03:53:39;99873.27;;;14.76;100.00
54872;BME280;43914;57.680;11.982;2023-07-13T03:56:06;99869.45;;;14.80;100.00
54872;BME280;43914;57.680;11.982;2023-07-13T03:58:35;99862.05;;;14.82;100.00
54872;BME280;43914;57.680;11.982;2023-07-13T04:01:03;99860.10;;;14.84;100.00
54872;BME280;43914;57.680;11.982;2023-07-13T04:03:30;99855.80;;;14.83;100.00
54872;BME280;43914;57.680;11.982;2023-07-13T04:06:02;99850.80;;;14.86;100.00
54872;BME280;43914;57.680;11.982;2023-07-13T04:08:30;99848.95;;;14.86;100.00
54872;BME280;43914;57.680;11.982;2023-07-13T04:10:56;99853.84;;;14.85;100.00
54872;BME280;43914;57.680;11.982;2023-07-13T04:13:23;99849.83;;;14.82;100.00
54872;BME280;43914;57.680;11.982;2023-07-13T04:15:51;99850.61;;;14.79;100.00
54872;BME280;43914;57.680;11.982;2023-07-13T04:18:16;99849.46;;;14.73;100.00
54872;BME280;43914;57.680;11.982;2023-07-13T04:20:43;99852.93;;;14.68;100.00
54872;BME280;43914;57.680;11.982;2023-07-13T04:23:08;99850.21;;;14.63;100.00
54872;BME280;43914;57.680;11.982;2023-07-13T04:25:34;99854.66;;;14.61;100.00
54872;BME280;43914;57.680;11.982;2023-07-13T04:27:59;99857.77;;;14.60;100.00
54872;BME280;43914;57.680;11.982;2023-07-13T04:30:25;99862.16;;;14.61;100.00
54872;BME280;43914;57.680;11.982;2023-07-13T04:32:52;99863.17;;;14.62;100.00
54872;BME280;43914;57.680;11.982;2023-07-13T04:35:20;99862.61;;;14.66;100.00
54872;BME280;43914;57.680;11.982;2023-07-13T04:37:47;99859.92;;;14.68;100.00
54872;BME280;43914;57.680;11.982;2023-07-13T04:40:16;99861.34;;;14.72;100.00
54872;BME280;43914;57.680;11.982;2023-07-13T04:42:42;99865.43;;;14.74;100.00
54872;BME280;43914;57.680;11.982;2023-07-13T04:45:09;99861.51;;;14.77;100.00
54872;BME280;43914;57.680;11.982;2023-07-13T04:47:34;99855.80;;;14.83;100.00
54872;BME280;43914;57.680;11.982;2023-07-13T04:50:01;99862.21;;;14.89;100.00
54872;BME280;43914;57.680;11.982;2023-07-13T04:52:27;99862.80;;;14.94;100.00
54872;BME280;43914;57.680;11.982;2023-07-13T04:54:52;99862.81;;;15.01;100.00
54872;BME280;43914;57.680;11.982;2023-07-13T04:57:17;99860.92;;;15.06;100.00
54872;BME280;43914;57.680;11.982;2023-07-13T04:59:43;99862.31;;;15.08;100.00
54872;BME280;43914;57.680;11.982;2023-07-13T05:02:09;99865.63;;;15.08;100.00
54872;BME280;43914;57.680;11.982;2023-07-13T05:04:34;99866.19;;;15.09;100.00
54872;BME280;43914;57.680;11.982;2023-07-13T05:06:59;99866.67;;;15.12;100.00
54872;BME280;43914;57.680;11.982;2023-07-13T05:09:25;99863.09;;;15.15;100.00
54872;BME280;43914;57.680;11.982;2023-07-13T05:11:51;99863.02;;;15.20;100.00
54872;BME280;43914;57.680;11.982;2023-07-13T05:14:16;99865.27;;;15.24;100.00
54872;BME280;43914;57.680;11.982;2023-07-13T05:16:42;99866.38;;;15.25;100.00
54872;BME280;43914;57.680;11.982;2023-07-13T05:19:08;99868.80;;;15.29;100.00
54872;BME280;43914;57.680;11.982;2023-07-13T05:21:34;99870.52;;;15.34;100.00
54872;BME280;43914;57.680;11.982;2023-07-13T05:24:00;99870.91;;;15.40;100.00
54872;BME280;43914;57.680;11.982;2023-07-13T05:26:25;99874.21;;;15.45;100.00
54872;BME280;43914;57.680;11.982;2023-07-13T05:28:51;99875.01;;;15.49;100.00
54872;BME280;43914;57.680;11.982;2023-07-13T05:31:17;99880.62;;;15.55;100.00
54872;BME280;43914;57.680;11.982;2023-07-13T05:33:42;99880.07;;;15.60;100.00
54872;BME280;43914;57.680;11.982;2023-07-13T05:36:08;99882.73;;;15.64;100.00
54872;BME280;43914;57.680;11.982;2023-07-13T05:38:34;99882.14;;;15.69;100.00
54872;BME280;43914;57.680;11.982;2023-07-13T05:41:00;99882.77;;;15.74;100.00
54872;BME280;43914;57.680;11.982;2023-07-13T05:43:25;99879.02;;;15.80;100.00
54872;BME280;43914;57.680;11.982;2023-07-13T05:45:53;99883.33;;;15.86;100.00
54872;BME280;43914;57.680;11.982;2023-07-13T05:48:19;99881.02;;;15.88;100.00
54872;BME280;43914;57.680;11.982;2023-07-13T05:50:45;99879.39;;;15.88;100.00
54872;BME280;43914;57.680;11.982;2023-07-13T05:53:11;99880.08;;;15.90;100.00
54872;BME280;43914;57.680;11.982;2023-07-13T05:55:41;99880.19;;;15.93;100.00
54872;BME280;43914;57.680;11.982;2023-07-13T05:58:07;99877.48;;;15.95;100.00
54872;BME280;43914;57.680;11.982;2023-07-13T06:00:33;99874.60;;;16.02;100.00
54872;BME280;43914;57.680;11.982;2023-07-13T06:02:58;99873.21;;;16.11;100.00
54872;BME280;43914;57.680;11.982;2023-07-13T06:05:24;99873.77;;;16.18;100.00
54872;BME280;43914;57.680;11.982;2023-07-13T06:07:50;99873.96;;;16.22;100.00
54872;BME280;43914;57.680;11.982;2023-07-13T06:10:15;99871.82;;;16.26;100.00
54872;BME280;43914;57.680;11.982;2023-07-13T06:12:41;99870.55;;;16.31;100.00
54872;BME280;43914;57.680;11.982;2023-07-13T06:15:07;99873.77;;;16.33;100.00
54872;BME280;43914;57.680;11.982;2023-07-13T06:17:33;99880.48;;;16.32;100.00
54872;BME280;43914;57.680;11.982;2023-07-13T06:19:58;99884.30;;;16.33;100.00
54872;BME280;43914;57.680;11.982;2023-07-13T06:22:24;99883.33;;;16.34;100.00
54872;BME280;43914;57.680;11.982;2023-07-13T06:24:49;99883.82;;;16.34;100.00
54872;BME280;43914;57.680;11.982;2023-07-13T06:27:15;99883.73;;;16.35;100.00
54872;BME280;43914;57.680;11.982;2023-07-13T06:29:41;99877.14;;;16.36;100.00
54872;BME280;43914;57.680;11.982;2023-07-13T06:32:10;99870.46;;;16.36;100.00
54872;BME280;43914;57.680;11.982;2023-07-13T06:34:36;99872.31;;;16.34;100.00
54872;BME280;43914;57.680;11.982;2023-07-13T06:37:02;99868.48;;;16.28;100.00
54872;BME280;43914;57.680;11.982;2023-07-13T06:39:27;99877.92;;;16.20;100.00
54872;BME280;43914;57.680;11.982;2023-07-13T06:41:53;99875.14;;;16.06;100.00
54872;BME280;43914;57.680;11.982;2023-07-13T06:44:18;99885.45;;;15.85;100.00
54872;BME280;43914;57.680;11.982;2023-07-13T06:46:44;99888.05;;;15.75;100.00
54872;BME280;43914;57.680;11.982;2023-07-13T06:49:09;99885.08;;;15.70;100.00
54872;BME280;43914;57.680;11.982;2023-07-13T06:51:35;99889.23;;;15.69;100.00
54872;BME280;43914;57.680;11.982;2023-07-13T06:54:00;99887.64;;;15.73;100.00
54872;BME280;43914;57.680;11.982;2023-07-13T06:56:26;99886.73;;;15.79;100.00
54872;BME280;43914;57.680;11.982;2023-07-13T06:58:51;99890.23;;;15.83;100.00
54872;BME280;43914;57.680;11.982;2023-07-13T07:01:17;99893.70;;;15.83;100.00
54872;BME280;43914;57.680;11.982;2023-07-13T07:03:42;99896.05;;;15.84;100.00
54872;BME280;43914;57.680;11.982;2023-07-13T07:06:16;99896.58;;;15.86;100.00
54872;BME280;43914;57.680;11.982;2023-07-13T07:08:43;99898.55;;;15.95;100.00
54872;BME280;43914;57.680;11.982;2023-07-13T07:11:16;99894.92;;;16.01;100.00
54872;BME280;43914;57.680;11.982;2023-07-13T07:13:41;99894.42;;;16.01;100.00
54872;BME280;43914;57.680;11.982;2023-07-13T07:16:07;99900.80;;;15.99;100.00
54872;BME280;43914;57.680;11.982;2023-07-13T07:18:34;99906.45;;;15.97;100.00
54872;BME280;43914;57.680;11.982;2023-07-13T07:21:00;99906.58;;;15.93;100.00
54872;BME280;43914;57.680;11.982;2023-07-13T07:23:26;99914.14;;;15.86;100.00
54872;BME280;43914;57.680;11.982;2023-07-13T07:25:51;99916.87;;;15.77;100.00
54872;BME280;43914;57.680;11.982;2023-07-13T07:28:17;99911.33;;;15.63;100.00
54872;BME280;43914;57.680;11.982;2023-07-13T07:30:47;99908.12;;;15.55;100.00
54872;BME280;43914;57.680;11.982;2023-07-13T07:33:13;99908.46;;;15.51;100.00
54872;BME280;43914;57.680;11.982;2023-07-13T07:35:39;99915.30;;;15.48;100.00
54872;BME280;43914;57.680;11.982;2023-07-13T07:38:04;99917.98;;;15.45;100.00
54872;BME280;43914;57.680;11.982;2023-07-13T07:40:30;99917.90;;;15.44;100.00
54872;BME280;43914;57.680;11.982;2023-07-13T07:42:57;99922.41;;;15.55;100.00
54872;BME280;43914;57.680;11.982;2023-07-13T07:45:23;99918.23;;;15.68;100.00
54872;BME280;43914;57.680;11.982;2023-07-13T07:47:49;99914.69;;;15.79;100.00
54872;BME280;43914;57.680;11.982;2023-07-13T07:50:15;99915.29;;;15.87;100.00
54872;BME280;43914;57.680;11.982;2023-07-13T07:52:41;99915.77;;;15.86;100.00
54872;BME280;43914;57.680;11.982;2023-07-13T07:55:07;99920.50;;;15.85;100.00
54872;BME280;43914;57.680;11.982;2023-07-13T07:57:33;99915.45;;;15.79;100.00
54872;BME280;43914;57.680;11.982;2023-07-13T07:59:59;99915.44;;;15.71;100.00
54872;BME280;43914;57.680;11.982;2023-07-13T08:02:25;99922.58;;;15.62;100.00
54872;BME280;43914;57.680;11.982;2023-07-13T08:04:51;99918.52;;;15.54;100.00
54872;BME280;43914;57.680;11.982;2023-07-13T08:07:17;99922.89;;;15.52;100.00
54872;BME280;43914;57.680;11.982;2023-07-13T08:09:42;99926.14;;;15.54;100.00
54872;BME280;43914;57.680;11.982;2023-07-13T08:12:08;99923.87;;;15.60;100.00
54872;BME280;43914;57.680;11.982;2023-07-13T08:14:34;99923.18;;;15.68;100.00
54872;BME280;43914;57.680;11.982;2023-07-13T08:16:59;99924.79;;;15.81;100.00
54872;BME280;43914;57.680;11.982;2023-07-13T08:19:25;99932.08;;;15.94;100.00
54872;BME280;43914;57.680;11.982;2023-07-13T08:21:50;99934.77;;;16.04;100.00
54872;BME280;43914;57.680;11.982;2023-07-13T08:24:16;99931.73;;;16.12;100.00
54872;BME280;43914;57.680;11.982;2023-07-13T08:26:44;99939.87;;;16.18;100.00
54872;BME280;43914;57.680;11.982;2023-07-13T08:29:10;99938.20;;;16.22;100.00
54872;BME280;43914;57.680;11.982;2023-07-13T08:31:36;99932.29;;;16.30;100.00
54872;BME280;43914;57.680;11.982;2023-07-13T08:34:01;99937.36;;;16.43;100.00
54872;BME280;43914;57.680;11.982;2023-07-13T08:36:28;99938.06;;;16.55;100.00
54872;BME280;43914;57.680;11.982;2023-07-13T08:38:54;99940.18;;;16.62;100.00
54872;BME280;43914;57.680;11.982;2023-07-13T08:41:23;99940.23;;;16.65;100.00
54872;BME280;43914;57.680;11.982;2023-07-13T08:43:51;99943.18;;;16.72;100.00
54872;BME280;43914;57.680;11.982;2023-07-13T08:46:24;99938.32;;;16.81;100.00
54872;BME280;43914;57.680;11.982;2023-07-13T08:48:56;99938.61;;;16.91;100.00
54872;BME280;43914;57.680;11.982;2023-07-13T08:54:03;99945.52;;;17.07;100.00
54872;BME280;43914;57.680;11.982;2023-07-13T08:56:32;99942.50;;;17.08;100.00
54872;BME280;43914;57.680;11.982;2023-07-13T08:59:02;99942.66;;;17.12;100.00
54872;BME280;43914;57.680;11.982;2023-07-13T09:01:47;99942.48;;;17.18;100.00
54872;BME280;43914;57.680;11.982;2023-07-13T09:04:26;99942.89;;;17.24;100.00
54872;BME280;43914;57.680;11.982;2023-07-13T09:15:32;99942.94;;;17.66;100.00
54872;BME280;43914;57.680;11.982;2023-07-13T09:18:08;99940.33;;;17.82;99.96
54872;BME280;43914;57.680;11.982;2023-07-13T09:20:40;99944.77;;;17.95;99.97
54872;BME280;43914;57.680;11.982;2023-07-13T09:23:14;99947.78;;;18.03;99.06
54872;BME280;43914;57.680;11.982;2023-07-13T09:25:41;99947.88;;;18.07;97.13
54872;BME280;43914;57.680;11.982;2023-07-13T09:28:19;99951.35;;;18.15;97.67
54872;BME280;43914;57.680;11.982;2023-07-13T09:30:56;99952.04;;;18.24;96.45
54872;BME280;43914;57.680;11.982;2023-07-13T09:33:24;99955.91;;;18.21;95.05
54872;BME280;43914;57.680;11.982;2023-07-13T09:35:50;99953.30;;;18.20;94.30
54872;BME280;43914;57.680;11.982;2023-07-13T09:38:18;99954.09;;;18.13;93.92
54872;BME280;43914;57.680;11.982;2023-07-13T09:43:27;99955.84;;;18.04;93.97
54872;BME280;43914;57.680;11.982;2023-07-13T09:45:55;99956.08;;;18.11;94.29
54872;BME280;43914;57.680;11.982;2023-07-13T09:48:20;99951.48;;;18.23;94.62
54872;BME280;43914;57.680;11.982;2023-07-13T09:50:46;99954.30;;;18.31;94.31
54872;BME280;43914;57.680;11.982;2023-07-13T09:53:16;99955.41;;;18.40;94.19
54872;BME280;43914;57.680;11.982;2023-07-13T09:55:45;99956.27;;;18.48;94.05
54872;BME280;43914;57.680;11.982;2023-07-13T09:58:15;99953.88;;;18.59;92.85
54872;BME280;43914;57.680;11.982;2023-07-13T10:00:43;99957.55;;;18.63;91.97
54872;BME280;43914;57.680;11.982;2023-07-13T10:03:23;99958.97;;;18.57;91.75
54872;BME280;43914;57.680;11.982;2023-07-13T10:05:51;99963.66;;;18.55;91.70
54872;BME280;43914;57.680;11.982;2023-07-13T10:08:35;99962.08;;;18.52;91.72
54872;BME280;43914;57.680;11.982;2023-07-13T10:11:16;99967.27;;;18.43;90.72
54872;BME280;43914;57.680;11.982;2023-07-13T10:13:46;99971.33;;;18.36;91.08
54872;BME280;43914;57.680;11.982;2023-07-13T10:16:14;99969.82;;;18.38;92.58
54872;BME280;43914;57.680;11.982;2023-07-13T10:18:49;99973.80;;;18.34;91.83
54872;BME280;43914;57.680;11.982;2023-07-13T10:21:21;99970.84;;;18.37;91.84
54872;BME280;43914;57.680;11.982;2023-07-13T10:23:51;99971.69;;;18.44;91.99
54872;BME280;43914;57.680;11.982;2023-07-13T10:26:23;99975.98;;;18.40;90.98
54872;BME280;43914;57.680;11.982;2023-07-13T10:28:53;99974.34;;;18.33;91.45
54872;BME280;43914;57.680;11.982;2023-07-13T10:31:21;99973.41;;;18.33;93.12
54872;BME280;43914;57.680;11.982;2023-07-13T10:33:48;99973.77;;;18.36;93.58
54872;BME280;43914;57.680;11.982;2023-07-13T10:36:39;99975.91;;;18.38;93.72
54872;BME280;43914;57.680;11.982;2023-07-13T10:39:06;99974.11;;;18.37;93.17
54872;BME280;43914;57.680;11.982;2023-07-13T10:41:36;99974.73;;;18.39;94.23
54872;BME280;43914;57.680;11.982;2023-07-13T10:44:05;99970.39;;;18.47;93.39
54872;BME280;43914;57.680;11.982;2023-07-13T10:46:36;99971.03;;;18.55;92.90
54872;BME280;43914;57.680;11.982;2023-07-13T10:49:05;99968.86;;;18.67;92.41
54872;BME280;43914;57.680;11.982;2023-07-13T10:51:32;99966.58;;;18.73;91.35
54872;BME280;43914;57.680;11.982;2023-07-13T10:54:25;99964.61;;;18.91;91.03
54872;BME280;43914;57.680;11.982;2023-07-13T10:59:35;99970.02;;;18.92;88.00
54872;BME280;43914;57.680;11.982;2023-07-13T11:04:52;99963.86;;;18.99;87.21
54872;BME280;43914;57.680;11.982;2023-07-13T11:07:21;99958.25;;;19.10;85.66
54872;BME280;43914;57.680;11.982;2023-07-13T11:09:55;99964.41;;;19.25;84.68
54872;BME280;43914;57.680;11.982;2023-07-13T11:22:47;99965.41;;;19.84;80.94
54872;BME280;43914;57.680;11.982;2023-07-13T11:27:50;99982.09;;;19.72;78.40
54872;BME280;43914;57.680;11.982;2023-07-13T11:30:21;99981.02;;;19.67;78.78
54872;BME280;43914;57.680;11.982;2023-07-13T11:33:14;99984.91;;;19.70;78.31
54872;BME280;43914;57.680;11.982;2023-07-13T11:38:37;99988.79;;;19.82;79.27
54872;BME280;43914;57.680;11.982;2023-07-13T11:41:18;99991.48;;;19.87;78.89
54872;BME280;43914;57.680;11.982;2023-07-13T11:43:45;100000.50;;;19.80;76.92
54872;BME280;43914;57.680;11.982;2023-07-13T11:46:26;99995.56;;;19.77;76.61
54872;BME280;43914;57.680;11.982;2023-07-13T11:48:53;99997.00;;;19.87;77.66
54872;BME280;43914;57.680;11.982;2023-07-13T11:56:56;99999.23;;;20.37;77.20
54872;BME280;43914;57.680;11.982;2023-07-13T11:59:26;99998.63;;;20.33;76.80
54872;BME280;43914;57.680;11.982;2023-07-13T12:01:53;100002.05;;;20.27;77.23
54872;BME280;43914;57.680;11.982;2023-07-13T12:04:28;100001.39;;;20.24;77.65
54872;BME280;43914;57.680;11.982;2023-07-13T12:07:11;99995.59;;;20.22;78.69
54872;BME280;43914;57.680;11.982;2023-07-13T12:09:40;99998.31;;;20.23;78.02
54872;BME280;43914;57.680;11.982;2023-07-13T12:12:16;100001.38;;;20.35;77.27
54872;BME280;43914;57.680;11.982;2023-07-13T12:14:43;100000.20;;;20.44;77.68
54872;BME280;43914;57.680;11.982;2023-07-13T12:17:23;100006.70;;;20.48;75.21
54872;BME280;43914;57.680;11.982;2023-07-13T12:19:50;100002.85;;;20.41;74.98
54872;BME280;43914;57.680;11.982;2023-07-13T12:22:17;99993.00;;;20.50;75.87
54872;BME280;43914;57.680;11.982;2023-07-13T12:24:45;100002.63;;;20.58;75.59
54872;BME280;43914;57.680;11.982;2023-07-13T12:27:27;100006.04;;;20.70;76.38
54872;BME280;43914;57.680;11.982;2023-07-13T12:29:59;100002.27;;;20.90;74.48
54872;BME280;43914;57.680;11.982;2023-07-13T12:32:26;100002.83;;;20.98;71.96
54872;BME280;43914;57.680;11.982;2023-07-13T12:34:56;99998.88;;;21.00;70.85
54872;BME280;43914;57.680;11.982;2023-07-13T12:37:23;100004.90;;;21.12;69.20
54872;BME280;43914;57.680;11.982;2023-07-13T12:39:49;100002.65;;;21.27;65.16
54872;BME280;43914;57.680;11.982;2023-07-13T12:42:27;100010.80;;;21.38;61.82
54872;BME280;43914;57.680;11.982;2023-07-13T12:45:17;100012.64;;;21.37;60.00
54872;BME280;43914;57.680;11.982;2023-07-13T12:47:47;100012.27;;;21.39;59.54
54872;BME280;43914;57.680;11.982;2023-07-13T12:50:19;100013.37;;;21.36;58.83
54872;BME280;43914;57.680;11.982;2023-07-13T12:52:51;100014.34;;;21.33;59.48
54872;BME280;43914;57.680;11.982;2023-07-13T12:55:19;100018.45;;;21.31;59.04
54872;BME280;43914;57.680;11.982;2023-07-13T12:57:55;100012.00;;;21.28;59.30
54872;BME280;43914;57.680;11.982;2023-07-13T13:00:27;100012.36;;;21.34;61.24
54872;BME280;43914;57.680;11.982;2023-07-13T13:02:57;100012.69;;;21.45;60.94
54872;BME280;43914;57.680;11.982;2023-07-13T13:05:26;100016.62;;;21.54;60.17
54872;BME280;43914;57.680;11.982;2023-07-13T13:07:52;100015.20;;;21.64;60.45
54872;BME280;43914;57.680;11.982;2023-07-13T13:10:18;100012.10;;;21.81;59.73
54872;BME280;43914;57.680;11.982;2023-07-13T13:12:43;100018.56;;;22.01;58.71
54872;BME280;43914;57.680;11.982;2023-07-13T13:15:12;100019.80;;;22.19;58.15
54872;BME280;43914;57.680;11.982;2023-07-13T13:17:40;100017.84;;;22.29;57.75
54872;BME280;43914;57.680;11.982;2023-07-13T13:20:17;100014.46;;;22.27;57.16
54872;BME280;43914;57.680;11.982;2023-07-13T13:22:43;100014.58;;;22.11;57.45
54872;BME280;43914;57.680;11.982;2023-07-13T13:25:13;100020.71;;;21.92;57.72
54872;BME280;43914;57.680;11.982;2023-07-13T13:27:41;100022.68;;;21.69;58.41